createdAt,value
2018-10-02T00:01:08.223Z,100982.92
2018-10-02T00:03:35.531Z,100986.16
2018-10-02T00:06:02.527Z,100985.94
2018-10-02T00:08:29.507Z,100994.67
2018-10-02T00:11:02.153Z,101002.30
2018-10-02T00:13:35.047Z,100994.30
2018-10-02T00:16:02.419Z,100995.16
2018-10-02T00:18:29.440Z,101004.39
2018-10-02T00:20:56.404Z,101011.03
2018-10-02T00:23:23.396Z,101017.64
2018-10-02T00:25:50.364Z,101015.16
2018-10-02T00:28:17.361Z,101025.05
2018-10-02T00:30:44.423Z,101015.80
2018-10-02T00:33:11.407Z,101012.28
2018-10-02T00:35:39.003Z,101011.93
2018-10-02T00:38:06.080Z,101008.19
2018-10-02T00:40:33.132Z,101001.70
2018-10-02T00:43:01.067Z,100991.72
2018-10-02T00:45:30.949Z,100984.50
2018-10-02T00:47:58.024Z,100988.87
2018-10-02T00:50:25.648Z,100987.14
2018-10-02T00:52:52.956Z,100973.28
2018-10-02T00:55:20.022Z,100981.77
2018-10-02T00:57:47.003Z,100982.99
2018-10-02T01:00:14.031Z,100981.76
2018-10-02T01:02:41.003Z,100972.67
2018-10-02T01:05:08.043Z,100978.02
2018-10-02T01:07:35.032Z,100984.02
2018-10-02T01:10:02.013Z,100976.78
2018-10-02T01:12:29.088Z,100966.92
2018-10-02T01:14:56.124Z,100964.80
2018-10-02T01:17:23.255Z,100964.67
2018-10-02T01:19:50.303Z,100957.05
2018-10-02T01:22:17.371Z,100949.56
2018-10-02T01:24:51.240Z,100949.30
2018-10-02T01:27:18.216Z,100943.42
2018-10-02T01:29:45.227Z,100943.42
2018-10-02T01:32:12.219Z,100936.25
2018-10-02T01:34:39.271Z,100930.31
2018-10-02T01:37:06.335Z,100939.92
2018-10-02T01:39:33.794Z,100936.31
2018-10-02T01:42:00.759Z,100943.69
2018-10-02T01:44:27.721Z,100937.44
2018-10-02T01:46:54.851Z,100924.09
2018-10-02T01:49:21.822Z,100924.94
2018-10-02T01:51:48.799Z,100921.81
2018-10-02T01:54:15.967Z,100922.13
2018-10-02T01:56:42.964Z,100909.41
2018-10-02T01:59:10.040Z,100907.80
2018-10-02T02:01:37.084Z,100908.05
2018-10-02T02:04:04.070Z,100910.03
2018-10-02T02:06:31.079Z,100911.02
2018-10-02T02:08:58.084Z,100913.39
2018-10-02T02:11:25.207Z,100912.90
2018-10-02T02:13:52.185Z,100912.40
2018-10-02T02:16:19.420Z,100918.51
2018-10-02T02:18:46.396Z,100921.27
2018-10-02T02:21:13.359Z,100915.03
2018-10-02T02:23:40.356Z,100905.42
2018-10-02T02:26:07.334Z,100897.95
2018-10-02T02:28:34.468Z,100891.73
2018-10-02T02:31:01.798Z,100885.48
2018-10-02T02:33:28.773Z,100872.50
2018-10-02T02:35:55.832Z,100865.02
2018-10-02T02:38:23.170Z,100863.55
2018-10-02T02:40:50.148Z,100860.77
2018-10-02T02:43:17.122Z,100857.28
2018-10-02T02:45:44.360Z,100854.44
2018-10-02T02:48:17.028Z,100861.67
2018-10-02T02:50:49.778Z,100854.41
2018-10-02T02:53:17.529Z,100861.41
2018-10-02T02:55:44.979Z,100860.55
2018-10-02T02:58:11.971Z,100861.53
2018-10-02T03:00:39.049Z,100861.55
2018-10-02T03:03:06.154Z,100863.05
2018-10-02T03:05:33.154Z,100867.40
2018-10-02T03:08:00.185Z,100873.27
2018-10-02T03:10:27.183Z,100869.91
2018-10-02T03:12:54.165Z,100864.91
2018-10-02T03:15:21.155Z,100868.55
2018-10-02T03:17:48.211Z,100861.67
2018-10-02T03:20:15.276Z,100868.88
2018-10-02T03:22:42.264Z,100863.25
2018-10-02T03:25:09.519Z,100866.02
2018-10-02T03:27:36.484Z,100859.27
2018-10-02T03:30:03.520Z,100857.27
2018-10-02T03:32:30.864Z,100867.39
2018-10-02T03:34:57.920Z,100871.64
2018-10-02T03:37:24.916Z,100858.79
2018-10-02T03:39:51.975Z,100845.87
2018-10-02T03:42:19.001Z,100824.88
2018-10-02T03:44:45.971Z,100814.17
2018-10-02T03:47:12.943Z,100812.28
2018-10-02T03:49:40.023Z,100815.66
2018-10-02T03:52:07.011Z,100816.19
2018-10-02T03:54:34.179Z,100801.45
2018-10-02T03:57:01.256Z,100807.42
2018-10-02T03:59:28.411Z,100819.69
2018-10-02T04:01:55.645Z,100813.33
2018-10-02T04:04:22.785Z,100807.21
2018-10-02T04:06:49.781Z,100806.05
2018-10-02T04:09:16.796Z,100806.94
2018-10-02T04:11:43.780Z,100807.80
2018-10-02T04:14:10.868Z,100810.44
2018-10-02T04:16:38.428Z,100820.66
2018-10-02T04:19:05.588Z,100821.13
2018-10-02T04:21:34.472Z,100805.89
2018-10-02T04:24:02.560Z,100800.42
2018-10-02T04:26:29.899Z,100792.05
2018-10-02T04:28:56.883Z,100799.82
2018-10-02T04:31:24.116Z,100791.44
2018-10-02T04:33:51.275Z,100792.69
2018-10-02T04:36:18.183Z,100802.30
2018-10-02T04:38:45.160Z,100814.03
2018-10-02T04:41:12.251Z,100815.79
2018-10-02T04:43:39.557Z,100804.65
2018-10-02T04:46:06.563Z,100799.55
2018-10-02T04:48:33.723Z,100797.95
2018-10-02T04:51:01.089Z,100784.69
2018-10-02T04:53:28.104Z,100784.23
2018-10-02T04:55:55.188Z,100788.70
2018-10-02T04:58:22.212Z,100795.89
2018-10-02T05:00:49.199Z,100798.06
2018-10-02T05:03:16.187Z,100788.56
2018-10-02T05:05:43.195Z,100783.83
2018-10-02T05:08:10.227Z,100786.70
2018-10-02T05:10:37.417Z,100774.47
2018-10-02T05:13:04.420Z,100773.44
2018-10-02T05:15:31.491Z,100757.98
2018-10-02T05:17:58.609Z,100756.01
2018-10-02T05:20:25.581Z,100760.97
2018-10-02T05:22:52.599Z,100760.20
2018-10-02T05:25:19.767Z,100756.45
2018-10-02T05:27:46.809Z,100747.92
2018-10-02T05:30:13.723Z,100747.48
2018-10-02T05:32:40.905Z,100747.30
2018-10-02T05:35:07.913Z,100738.09
2018-10-02T05:37:34.877Z,100732.33
2018-10-02T05:40:02.172Z,100739.91
2018-10-02T05:42:29.164Z,100737.31
2018-10-02T05:44:56.236Z,100741.40
2018-10-02T05:47:23.252Z,100734.09
2018-10-02T05:49:50.230Z,100736.17
2018-10-02T05:52:17.379Z,100734.05
2018-10-02T05:54:44.807Z,100731.42
2018-10-02T05:57:11.878Z,100729.20
2018-10-02T05:59:38.956Z,100732.47
2018-10-02T06:02:06.039Z,100729.20
2018-10-02T06:04:33.017Z,100728.20
2018-10-02T06:07:00.006Z,100726.09
2018-10-02T06:09:27.008Z,100727.86
2018-10-02T06:11:54.029Z,100723.36
2018-10-02T06:14:21.031Z,100723.02
2018-10-02T06:16:48.037Z,100724.75
2018-10-02T06:19:15.016Z,100728.87
2018-10-02T06:21:42.001Z,100718.51
2018-10-02T06:24:09.088Z,100720.76
2018-10-02T06:26:36.059Z,100723.01
2018-10-02T06:29:03.128Z,100722.91
2018-10-02T06:31:30.216Z,100726.41
2018-10-02T06:33:57.290Z,100717.55
2018-10-02T06:36:24.272Z,100719.88
2018-10-02T06:38:51.764Z,100718.58
2018-10-02T06:41:18.926Z,100713.78
2018-10-02T06:43:45.997Z,100708.47
2018-10-02T06:46:12.936Z,100711.80
2018-10-02T06:48:40.032Z,100710.73
2018-10-02T06:51:07.246Z,100701.56
2018-10-02T06:53:34.413Z,100704.03
2018-10-02T06:56:01.453Z,100706.07
2018-10-02T06:58:28.423Z,100694.10
2018-10-02T07:00:55.452Z,100686.53
2018-10-02T07:03:22.427Z,100682.02
2018-10-02T07:05:49.579Z,100672.69
2018-10-02T07:08:16.592Z,100672.02
2018-10-02T07:10:43.602Z,100672.73
2018-10-02T07:13:10.592Z,100663.61
2018-10-02T07:15:37.722Z,100645.97
2018-10-02T07:18:04.907Z,100642.75
2018-10-02T07:20:32.084Z,100640.87
2018-10-02T07:22:59.228Z,100637.05
2018-10-02T07:25:26.587Z,100641.27
2018-10-02T07:27:53.667Z,100635.90
2018-10-02T07:30:20.545Z,100632.74
2018-10-02T07:32:47.692Z,100622.36
2018-10-02T07:35:14.744Z,100611.78
2018-10-02T07:37:41.821Z,100615.38
2018-10-02T07:40:08.953Z,100611.38
2018-10-02T07:42:36.120Z,100610.00
2018-10-02T07:45:03.282Z,100607.63
2018-10-02T07:47:30.537Z,100595.61
2018-10-02T07:49:57.488Z,100594.06
2018-10-02T07:52:24.479Z,100587.61
2018-10-02T07:54:51.479Z,100585.02
2018-10-02T07:57:18.550Z,100580.41
2018-10-02T07:59:46.049Z,100566.70
2018-10-02T08:02:12.989Z,100568.77
2018-10-02T08:04:40.011Z,100556.64
2018-10-02T08:07:07.332Z,100560.34
2018-10-02T08:09:34.307Z,100556.52
2018-10-02T08:12:01.365Z,100556.31
2018-10-02T08:14:28.402Z,100550.47
2018-10-02T08:16:55.360Z,100541.60
2018-10-02T08:19:22.412Z,100541.25
2018-10-02T08:21:49.454Z,100542.27
2018-10-02T08:24:16.448Z,100540.55
2018-10-02T08:26:43.584Z,100541.02
2018-10-02T08:29:10.808Z,100540.95
2018-10-02T08:31:37.806Z,100533.78
2018-10-02T08:34:04.776Z,100529.81
2018-10-02T08:36:31.849Z,100524.59
2018-10-02T08:38:59.017Z,100524.82
2018-10-02T08:41:26.004Z,100515.13
2018-10-02T08:43:53.066Z,100518.94
2018-10-02T08:46:20.136Z,100500.92
2018-10-02T08:48:47.336Z,100488.63
2018-10-02T08:51:14.402Z,100489.62
2018-10-02T08:53:41.478Z,100475.98
2018-10-02T08:56:08.455Z,100480.02
2018-10-02T08:58:35.448Z,100463.25
2018-10-02T09:01:02.523Z,100466.19
2018-10-02T09:03:29.922Z,100465.20
2018-10-02T09:05:56.904Z,100462.92
2018-10-02T09:08:23.892Z,100451.95
2018-10-02T09:10:51.158Z,100450.99
2018-10-02T09:13:18.747Z,100434.22
2018-10-02T09:15:45.809Z,100442.95
2018-10-02T09:18:12.841Z,100438.41
2018-10-02T09:20:40.504Z,100438.62
2018-10-02T09:23:07.529Z,100433.28
2018-10-02T09:25:34.532Z,100422.74
2018-10-02T09:28:01.556Z,100428.51
2018-10-02T09:30:34.237Z,100412.81
2018-10-02T09:33:07.040Z,100416.08
2018-10-02T09:35:39.771Z,100406.56
2018-10-02T09:38:12.761Z,100403.81
2018-10-02T09:40:45.912Z,100398.91
2018-10-02T09:43:19.015Z,100397.78
2018-10-02T09:45:46.053Z,100383.36
2018-10-02T09:48:14.476Z,100371.20
2018-10-02T09:50:41.563Z,100383.61
2018-10-02T09:53:08.591Z,100368.77
2018-10-02T09:55:35.597Z,100360.03
2018-10-02T09:58:03.044Z,100364.67
2018-10-02T10:00:35.674Z,100372.25
2018-10-02T10:03:02.889Z,100353.27
2018-10-02T10:05:29.890Z,100357.17
2018-10-02T10:07:56.875Z,100347.09
2018-10-02T10:10:23.986Z,100351.79
2018-10-02T10:12:51.099Z,100347.39
2018-10-02T10:15:18.138Z,100335.20
2018-10-02T10:17:45.243Z,100337.28
2018-10-02T10:20:12.232Z,100324.25
2018-10-02T10:22:39.716Z,100329.91
2018-10-02T10:25:06.666Z,100320.12
2018-10-02T10:27:33.636Z,100310.72
2018-10-02T10:30:00.661Z,100298.14
2018-10-02T10:32:27.747Z,100296.50
2018-10-02T10:34:55.486Z,100284.87
2018-10-02T10:37:22.465Z,100282.88
2018-10-02T10:39:49.496Z,100283.77
2018-10-02T10:42:16.420Z,100275.67
2018-10-02T10:44:43.810Z,100271.33
2018-10-02T10:47:10.872Z,100269.70
2018-10-02T10:49:37.831Z,100267.89
2018-10-02T10:52:04.824Z,100275.31
2018-10-02T10:54:31.947Z,100258.47
2018-10-02T10:56:59.135Z,100275.70
2018-10-02T10:59:26.301Z,100245.61
2018-10-02T11:01:53.347Z,100249.16
2018-10-02T11:04:20.924Z,100242.84
2018-10-02T11:06:47.889Z,100240.81
2018-10-02T11:09:14.893Z,100232.66
2018-10-02T11:11:41.848Z,100216.48
2018-10-02T11:14:09.383Z,100237.34
2018-10-02T11:16:36.385Z,100228.92
2018-10-02T11:19:03.400Z,100227.00
2018-10-02T11:21:30.540Z,100219.79
2018-10-02T11:23:57.560Z,100219.98
2018-10-02T11:26:24.656Z,100209.02
2018-10-02T11:28:51.784Z,100216.70
2018-10-02T11:31:19.442Z,100217.09
2018-10-02T11:33:46.380Z,100224.88
2018-10-02T11:36:13.615Z,100218.62
2018-10-02T11:38:40.588Z,100208.39
2018-10-02T11:41:07.574Z,100208.39
2018-10-02T11:43:34.710Z,100214.25
2018-10-02T11:46:01.655Z,100205.22
2018-10-02T11:48:28.647Z,100196.55
2018-10-02T11:50:55.852Z,100209.72
2018-10-02T11:53:22.893Z,100199.72
2018-10-02T11:55:50.182Z,100194.13
2018-10-02T11:58:17.804Z,100201.63
2018-10-02T12:00:44.852Z,100191.23
2018-10-02T12:03:11.987Z,100189.44
2018-10-02T12:05:39.103Z,100180.77
2018-10-02T12:08:06.243Z,100174.98
2018-10-02T12:10:33.332Z,100166.92
2018-10-02T12:13:00.439Z,100179.12
2018-10-02T12:15:27.366Z,100171.14
2018-10-02T12:17:54.380Z,100165.16
2018-10-02T12:20:21.463Z,100177.39
2018-10-02T12:22:48.516Z,100179.30
2018-10-02T12:25:15.804Z,100172.73
2018-10-02T12:27:42.956Z,100185.74
2018-10-02T12:30:10.031Z,100182.72
2018-10-02T12:32:37.143Z,100177.83
2018-10-02T12:35:04.174Z,100173.09
2018-10-02T12:37:31.249Z,100180.79
2018-10-02T12:39:58.281Z,100190.20
2018-10-02T12:42:25.262Z,100186.36
2018-10-02T12:44:52.243Z,100168.63
2018-10-02T12:47:19.323Z,100172.73
2018-10-02T12:49:46.301Z,100160.89
2018-10-02T12:52:13.447Z,100165.56
2018-10-02T12:54:40.488Z,100162.45
2018-10-02T12:57:07.465Z,100160.45
2018-10-02T12:59:34.477Z,100163.03
2018-10-02T13:02:01.480Z,100163.97
2018-10-02T13:04:28.485Z,100159.43
2018-10-02T13:06:55.901Z,100157.28
2018-10-02T13:09:22.953Z,100151.27
2018-10-02T13:11:49.934Z,100156.47
2018-10-02T13:14:17.015Z,100161.94
2018-10-02T13:16:44.402Z,100168.31
2018-10-02T13:19:11.323Z,100156.83
2018-10-02T13:21:38.402Z,100156.69
2018-10-02T13:24:06.161Z,100153.89
2018-10-02T13:26:33.241Z,100153.96
2018-10-02T13:29:00.204Z,100155.96
2018-10-02T13:31:27.335Z,100152.37
2018-10-02T13:33:54.411Z,100153.81
2018-10-02T13:36:21.414Z,100158.97
2018-10-02T13:38:48.395Z,100154.94
2018-10-02T13:41:16.013Z,100151.11
2018-10-02T13:43:43.180Z,100148.78
2018-10-02T13:46:10.571Z,100141.50
2018-10-02T13:48:37.586Z,100142.58
2018-10-02T13:51:04.686Z,100148.80
2018-10-02T13:53:31.681Z,100146.25
2018-10-02T13:55:58.892Z,100151.73
2018-10-02T13:58:25.896Z,100161.47
2018-10-02T14:00:52.879Z,100165.23
2018-10-02T14:03:19.967Z,100172.36
2018-10-02T14:05:46.932Z,100176.61
2018-10-02T14:08:14.005Z,100170.30
2018-10-02T14:10:41.381Z,100186.32
2018-10-02T14:13:08.836Z,100171.16
2018-10-02T14:15:35.986Z,100176.05
2018-10-02T14:18:03.233Z,100160.05
2018-10-02T14:20:30.247Z,100161.47
2018-10-02T14:22:57.840Z,100150.91
2018-10-02T14:25:25.052Z,100156.48
2018-10-02T14:27:52.094Z,100148.33
2018-10-02T14:30:19.603Z,100156.95
2018-10-02T14:32:46.743Z,100158.08
2018-10-02T14:35:20.557Z,100152.95
2018-10-02T14:37:47.529Z,100156.48
2018-10-02T14:40:14.524Z,100163.42
2018-10-02T14:42:41.640Z,100171.58
2018-10-02T14:45:08.848Z,100167.32
2018-10-02T14:47:35.852Z,100173.92
2018-10-02T14:50:03.251Z,100180.83
2018-10-02T14:52:30.248Z,100191.20
2018-10-02T14:54:57.317Z,100201.80
2018-10-02T14:57:24.326Z,100203.15
2018-10-02T14:59:51.545Z,100199.45
2018-10-02T15:02:18.544Z,100207.45
2018-10-02T15:04:45.872Z,100206.59
2018-10-02T15:07:12.900Z,100214.42
2018-10-02T15:09:40.055Z,100200.70
2018-10-02T15:12:07.150Z,100199.05
2018-10-02T15:17:58.263Z,100202.68
2018-10-02T15:20:25.239Z,100197.03
2018-10-02T15:22:52.211Z,100196.53
2018-10-02T15:25:19.266Z,100198.97
2018-10-02T15:27:46.343Z,100211.86
2018-10-02T15:30:13.343Z,100212.47
2018-10-02T15:32:40.505Z,100204.22
2018-10-02T15:35:07.506Z,100202.04
2018-10-02T15:37:34.588Z,100210.34
2018-10-02T15:40:01.702Z,100216.22
2018-10-02T15:42:28.692Z,100215.82
2018-10-02T15:44:55.758Z,100216.15
2018-10-02T15:47:22.832Z,100218.33
2018-10-02T15:49:49.796Z,100220.84
2018-10-02T15:52:16.764Z,100228.47
2018-10-02T15:54:44.131Z,100228.83
2018-10-02T15:57:11.222Z,100226.82
2018-10-02T15:59:38.305Z,100230.09
2018-10-02T16:02:06.088Z,100223.80
2018-10-02T16:05:03.131Z,100224.09
2018-10-02T16:07:30.629Z,100223.93
2018-10-02T16:09:57.611Z,100216.45
2018-10-02T16:12:24.605Z,100225.97
2018-10-02T16:14:51.624Z,100220.45
2018-10-02T16:17:18.629Z,100219.36
2018-10-02T16:19:45.924Z,100222.73
2018-10-02T16:22:13.343Z,100221.88
2018-10-02T16:24:40.318Z,100225.81
2018-10-02T16:27:07.353Z,100233.34
2018-10-02T16:29:34.589Z,100230.66
2018-10-02T16:32:01.659Z,100233.80
2018-10-02T16:34:28.814Z,100238.20
2018-10-02T16:36:55.820Z,100249.09
2018-10-02T16:39:22.900Z,100250.61
2018-10-02T16:41:49.897Z,100256.55
2018-10-02T16:44:17.488Z,100250.27
2018-10-02T16:46:44.548Z,100257.06
2018-10-02T16:49:11.656Z,100258.19
2018-10-02T16:51:38.768Z,100261.05
2018-10-02T16:54:06.204Z,100258.54
2018-10-02T16:56:33.188Z,100267.87
2018-10-02T16:59:00.167Z,100270.03
2018-10-02T17:01:27.296Z,100266.34
2018-10-02T17:03:54.279Z,100270.03
2018-10-02T17:06:21.269Z,100273.39
2018-10-02T17:08:48.525Z,100272.43
2018-10-02T17:11:16.180Z,100291.86
2018-10-02T17:13:43.184Z,100291.14
2018-10-02T17:16:10.200Z,100291.83
2018-10-02T17:18:37.628Z,100290.39
2018-10-02T17:21:04.936Z,100283.48
2018-10-02T17:23:31.929Z,100296.95
2018-10-02T17:25:59.097Z,100293.12
2018-10-02T17:28:26.188Z,100285.45
2018-10-02T17:30:53.270Z,100277.86
2018-10-02T17:33:20.517Z,100283.27
2018-10-02T17:35:47.600Z,100283.66
2018-10-02T17:38:14.631Z,100292.30
2018-10-02T17:40:41.919Z,100286.34
2018-10-02T17:43:08.977Z,100300.58
2018-10-02T17:45:36.263Z,100272.39
2018-10-02T17:48:03.263Z,100270.81
2018-10-02T17:50:30.255Z,100273.62
2018-10-02T17:52:57.247Z,100281.91
2018-10-02T17:55:24.503Z,100281.16
2018-10-02T17:57:51.617Z,100278.55
2018-10-02T18:00:19.035Z,100280.58
2018-10-02T18:02:46.191Z,100288.11
2018-10-02T18:05:13.169Z,100283.70
2018-10-02T18:07:40.721Z,100281.19
2018-10-02T18:10:08.130Z,100295.02
2018-10-02T18:12:35.190Z,100296.48
2018-10-02T18:15:02.585Z,100305.80
2018-10-02T18:17:29.672Z,100302.72
2018-10-02T18:19:56.754Z,100304.00
2018-10-02T18:22:23.732Z,100308.70
2018-10-02T18:24:51.008Z,100294.80
2018-10-02T18:27:18.048Z,100305.05
2018-10-02T18:29:45.233Z,100305.13
2018-10-02T18:32:12.227Z,100307.41
2018-10-02T18:34:39.255Z,100307.98
2018-10-02T18:37:06.292Z,100316.16
2018-10-02T18:39:33.279Z,100298.56
2018-10-02T18:42:00.269Z,100299.39
2018-10-02T18:44:27.319Z,100307.31
2018-10-02T18:46:54.462Z,100309.81
2018-10-02T18:49:21.636Z,100312.58
2018-10-02T18:51:48.664Z,100309.21
2018-10-02T18:54:15.707Z,100321.53
2018-10-02T18:56:42.831Z,100336.16
2018-10-02T18:59:09.774Z,100336.59
2018-10-02T19:01:37.028Z,100342.27
2018-10-02T19:04:04.231Z,100340.00
2018-10-02T19:06:31.204Z,100351.98
2018-10-02T19:09:04.471Z,100348.82
2018-10-02T19:11:37.085Z,100343.47
2018-10-02T19:14:04.068Z,100361.00
2018-10-02T19:16:33.751Z,100358.69
2018-10-02T19:19:00.806Z,100344.22
2018-10-02T19:21:28.738Z,100345.08
2018-10-02T19:23:55.766Z,100339.41
2018-10-02T19:26:24.544Z,100340.56
2018-10-02T19:28:51.551Z,100341.63
2018-10-02T19:31:24.464Z,100348.16
2018-10-02T19:33:51.595Z,100345.58
2018-10-02T19:36:18.675Z,100333.25
2018-10-02T19:38:52.822Z,100342.96
2018-10-02T19:41:19.811Z,100345.66
2018-10-02T19:43:46.844Z,100336.88
2018-10-02T19:46:21.716Z,100337.05
2018-10-02T19:48:48.889Z,100341.27
2018-10-02T19:51:21.968Z,100359.70
2018-10-02T19:53:49.207Z,100347.17
2018-10-02T19:56:16.280Z,100354.81
2018-10-02T19:58:43.555Z,100354.33
2018-10-02T20:01:10.580Z,100363.58
2018-10-02T20:03:37.681Z,100355.39
2018-10-02T20:06:06.082Z,100348.22
2018-10-02T20:08:33.086Z,100347.88
2018-10-02T20:11:00.725Z,100342.48
2018-10-02T20:13:27.778Z,100348.43
2018-10-02T20:15:54.879Z,100352.58
2018-10-02T20:18:21.879Z,100353.84
2018-10-02T20:20:48.997Z,100351.53
2018-10-02T20:23:15.990Z,100348.43
2018-10-02T20:25:43.321Z,100351.98
2018-10-02T20:28:10.490Z,100350.19
2018-10-02T20:30:37.501Z,100348.06
2018-10-02T20:33:04.534Z,100351.23
2018-10-02T20:35:31.753Z,100345.63
2018-10-02T20:37:58.829Z,100348.91
2018-10-02T20:40:25.988Z,100354.28
2018-10-02T20:42:53.041Z,100363.60
2018-10-02T20:45:20.589Z,100362.91
2018-10-02T20:47:47.871Z,100368.83
2018-10-02T20:50:14.952Z,100385.40
2018-10-02T20:52:42.113Z,100369.52
2018-10-02T20:55:09.181Z,100390.06
2018-10-02T20:57:36.919Z,100376.22
2018-10-02T21:00:04.028Z,100382.29
2018-10-02T21:02:31.233Z,100390.08
2018-10-02T21:04:58.219Z,100369.46
2018-10-02T21:07:25.465Z,100371.30
2018-10-02T21:09:52.449Z,100364.38
2018-10-02T21:12:19.579Z,100350.60
2018-10-02T21:14:46.983Z,100346.84
2018-10-02T21:17:14.157Z,100355.02
2018-10-02T21:19:41.131Z,100354.08
2018-10-02T21:22:08.237Z,100352.16
2018-10-02T21:24:35.376Z,100350.98
2018-10-02T21:27:02.409Z,100354.54
2018-10-02T21:29:29.785Z,100359.15
2018-10-02T21:31:56.871Z,100355.58
2018-10-02T21:34:24.083Z,100348.57
2018-10-02T21:36:51.173Z,100349.52
2018-10-02T21:39:18.168Z,100342.88
2018-10-02T21:41:45.155Z,100341.44
2018-10-02T21:44:12.236Z,100338.45
2018-10-02T21:46:39.236Z,100347.80
2018-10-02T21:49:06.332Z,100353.97
2018-10-02T21:51:33.615Z,100354.16
2018-10-02T21:54:00.787Z,100350.20
2018-10-02T21:56:28.227Z,100346.38
2018-10-02T21:58:55.426Z,100357.43
2018-10-02T22:01:27.643Z,100366.00
2018-10-02T22:03:54.616Z,100365.60
2018-10-02T22:06:21.780Z,100366.48
2018-10-02T22:08:48.858Z,100386.80
2018-10-02T22:11:16.045Z,100390.47
2018-10-02T22:13:43.204Z,100393.94
2018-10-02T22:16:10.252Z,100400.35
2018-10-02T22:18:37.276Z,100385.90
2018-10-02T22:21:04.272Z,100379.83
2018-10-02T22:23:31.244Z,100372.59
2018-10-02T22:25:58.311Z,100373.19
2018-10-02T22:28:25.283Z,100366.95
2018-10-02T22:30:52.259Z,100359.73
2018-10-02T22:33:19.330Z,100356.27
2018-10-02T22:35:46.244Z,100351.95
2018-10-02T22:38:13.317Z,100339.61
2018-10-02T22:40:40.605Z,100351.25
2018-10-02T22:43:07.585Z,100346.13
2018-10-02T22:45:34.563Z,100344.80
2018-10-02T22:48:01.575Z,100353.75
2018-10-02T22:50:29.399Z,100351.25
2018-10-02T22:52:56.440Z,100355.67
2018-10-02T22:55:23.432Z,100380.61
2018-10-02T22:57:50.433Z,100297.97
2018-10-02T23:00:17.421Z,100370.62
2018-10-02T23:02:44.464Z,100379.77
2018-10-02T23:05:11.548Z,100367.91
2018-10-02T23:07:38.545Z,100371.58
2018-10-02T23:10:05.696Z,100373.62
2018-10-02T23:12:32.775Z,100378.52
2018-10-02T23:15:00.001Z,100372.55
2018-10-02T23:17:27.047Z,100367.91
2018-10-02T23:19:54.434Z,100374.16
2018-10-02T23:22:21.427Z,100378.11
2018-10-02T23:24:48.412Z,100381.69
2018-10-02T23:27:15.508Z,100377.34
2018-10-02T23:29:42.498Z,100387.92
2018-10-02T23:32:09.475Z,100383.97
2018-10-02T23:34:36.466Z,100389.72
2018-10-02T23:37:03.502Z,100388.98
2018-10-02T23:39:31.064Z,100394.20
2018-10-02T23:41:58.049Z,100416.72
2018-10-02T23:44:25.024Z,100395.43
2018-10-02T23:46:52.022Z,100387.44
2018-10-02T23:49:19.044Z,100385.42
2018-10-02T23:51:46.020Z,100393.29
2018-10-02T23:54:13.103Z,100395.97
2018-10-02T23:56:40.232Z,100392.05
2018-10-02T23:59:07.312Z,100392.90
